• Join FlightAware (Why Join?)
  • Login
  • US Flag 
08:13PM EDT


 

Airport Tracker/Info


-or-


 

Live Flight TrackerFlight Track Log ✈ AWE66 ✈ 31-Jul-2013 ✈ KSAN - KDCA

Flight Track Log - Related Links

Times and Time Zones

All times are in EDT time to prevent confusion due to time zone crossing. See the AWE66 flight status page for this flight to view local times or setup timezone preferences in your user account.

Time Position Orientation Groundspeed Altitude Reporting Facility
EDT Latitude Longitude Course Direction KTS MPH feet Rate Location/Type
02:09AM 32.7564 -117.2506 16° North 202 232 1,900  Level Los Angeles Center
02:10AM 32.7731 -117.3261 285° West 239 275 3,900 2,160 Climbing Los Angeles Center
02:11AM 32.7086 -117.3353 187° South 249 287 6,300 2,220 Climbing Los Angeles Center
02:12AM 32.6756 -117.2564 116° Southeast 279 321 8,400 1,920 Climbing Los Angeles Center
02:13AM 32.6550 -117.1631 105° East 293 337 10,300 1,320 Climbing Los Angeles Center
02:14AM 32.7679 -116.7107 16° North  Level FlightAware Approximate
02:14AM 32.6297 -117.0578 106° East 331 381 11,200  Level Los Angeles Center
02:15AM 32.6136 -116.9364 99° East 376 433 12,300 1,380 Climbing Los Angeles Center
02:16AM 32.6292 -116.8097 82° East 393 452 14,100 1,620 Climbing Los Angeles Center
02:17AM 32.7206 -116.7383 33° Northeast 405 466 15,700 1,500 Climbing Los Angeles Center
02:18AM 32.8311 -116.6992 17° North 411 473 17,200 1,320 Climbing Los Angeles Center
02:19AM 32.9456 -116.6572 17° North 420 483 18,400 1,140 Climbing Los Angeles Center
02:20AM 33.0636 -116.6136 17° North 432 497 19,500 1,080 Climbing Los Angeles Center
02:21AM 33.1797 -116.5533 23° Northeast 451 519 20,600 1,080 Climbing Los Angeles Center
02:22AM 33.2825 -116.4611 37° Northeast 456 525 21,700 1,020 Climbing Los Angeles Center
02:23AM 33.3881 -116.3700 36° Northeast 464 534 22,700 1,080 Climbing Los Angeles Center
02:24AM 33.5142 -116.2586 36° Northeast 468 539 23,900 1,080 Climbing Los Angeles Center
02:25AM 33.6189 -116.1631 37° Northeast 469 540 24,900 900 Climbing Los Angeles Center
02:27AM 33.6747 -116.0175 65° Northeast 471 542 25,800 780 Climbing Los Angeles Center
02:28AM 33.7272 -115.8722 66° East 474 545 26,600 780 Climbing Los Angeles Center
02:29AM 33.7800 -115.7236 67° East 480 552 27,400 780 Climbing Los Angeles Center
02:30AM 33.8344 -115.5753 66° East 483 556 28,200 780 Climbing Los Angeles Center
02:31AM 33.8878 -115.4258 67° East 486 559 29,000 600 Climbing Los Angeles Center
02:32AM 33.9300 -115.3050 67° East 488 562 29,500 660 Climbing Los Angeles Center
02:33AM 33.9939 -115.1233 67° East 491 565 30,400 840 Climbing Los Angeles Center
02:34AM 34.0481 -114.9725 67° East 491 565 31,300 780 Climbing Los Angeles Center
02:35AM 34.1006 -114.8200 67° East 494 568 32,000 660 Climbing Los Angeles Center
02:36AM 34.1525 -114.6706 67° East 486 559 32,700 660 Climbing Los Angeles Center
02:37AM 34.2056 -114.5192 67° East 490 564 33,400 660 Climbing Los Angeles Center
02:38AM 34.2572 -114.3692 67° East 488 562 34,100 660 Climbing Los Angeles Center
02:38AM 34.2953 -114.2561 68° East 488 562 34,600 480 Climbing Albuquerque Center
02:39AM 34.3481 -114.1019 67° East 491 565 35,000 180 Climbing Albuquerque Center
02:40AM 34.4000 -113.9519 67° East 487 560 35,000  Level Albuquerque Center
02:41AM 34.4506 -113.8011 68° East 485 558 35,000  Level Albuquerque Center
02:42AM 34.5025 -113.6469 68° East 489 563 35,000  Level Albuquerque Center
02:43AM 34.5619 -113.4703 68° East 489 563 35,000  Level Albuquerque Center
02:44AM 34.6125 -113.3203 68° East 487 560 35,000  Level Albuquerque Center
02:45AM 34.6608 -113.1708 68° East 483 556 35,000  Level Albuquerque Center
02:46AM 34.7097 -113.0228 68° East 481 554 35,000  Level Albuquerque Center
02:47AM 34.7586 -112.8736 68° East 481 554 35,000  Level Albuquerque Center
02:48AM 34.8075 -112.7219 69° East 484 557 35,000  Level Albuquerque Center
02:49AM 34.8572 -112.5700 68° East 488 562 35,000  Level Albuquerque Center
02:50AM 34.9058 -112.4181 69° East 489 563 35,000  Level Albuquerque Center
02:51AM 34.9547 -112.2667 68° East 488 562 35,000  Level Albuquerque Center
02:52AM 35.0022 -112.1131 69° East 488 562 35,000  Level Albuquerque Center
02:53AM 35.0511 -111.9614 68° East 487 560 35,000  Level Albuquerque Center
02:54AM 35.0986 -111.8108 69° East 483 556 35,000  Level Albuquerque Center
02:55AM 35.1519 -111.6417 69° East 482 555 35,000  Level Albuquerque Center
02:56AM 35.2006 -111.4878 69° East 484 557 35,000  Level Albuquerque Center
02:57AM 35.2478 -111.3333 69° East 484 557 35,000  Level Albuquerque Center
02:59AM 35.2958 -111.1781 69° East 486 559 35,000  Level Albuquerque Center
03:00AM 35.3453 -111.0239 68° East 484 557 35,000  Level Albuquerque Center
03:01AM 35.3892 -110.8767 70° East 481 554 35,000  Level Albuquerque Center
03:02AM 35.4419 -110.7061 69° East 480 552 35,000  Level Albuquerque Center
03:03AM 35.4850 -110.5581 70° East 481 554 35,000  Level Albuquerque Center
03:04AM 35.5303 -110.4108 69° East 482 555 35,000  Level Albuquerque Center
03:05AM 35.5758 -110.2622 69° East 485 558 35,000  Level Albuquerque Center
03:06AM 35.6264 -110.0864 70° East 486 559 35,000  Level Albuquerque Center
03:07AM 35.6719 -109.9364 69° East 489 563 35,000  Level Albuquerque Center
03:08AM 35.7161 -109.7864 70° East 488 562 35,000  Level Albuquerque Center
03:09AM 35.7678 -109.6111 70° East 488 562 35,000  Level Albuquerque Center
03:10AM 35.8119 -109.4600 70° East 489 563 35,000  Level Albuquerque Center
03:11AM 35.8572 -109.3092 70° East 491 565 35,000  Level Albuquerque Center
03:12AM 35.9050 -109.1383 71° East 490 564 35,000  Level Albuquerque Center
03:13AM 35.9531 -108.9789 70° East 494 568 35,000  Level Albuquerque Center
03:14AM 35.9967 -108.8208 71° East 488 562 35,000  Level Albuquerque Center
03:15AM 36.0425 -108.6611 70° East 493 567 35,000  Level Albuquerque Center
03:16AM 36.0881 -108.5017 70° East 491 565 35,000  Level Albuquerque Center
03:17AM 36.1286 -108.3583 71° East 488 562 35,000  Level Albuquerque Center
03:18AM 36.1781 -108.1817 71° East 487 560 35,000  Level Albuquerque Center
03:18AM 36.1983 -108.1050 72° East 487 560 35,000  Level Denver Center
03:19AM 36.2475 -107.9278 71° East 487 560 35,000  Level Denver Center
03:20AM 36.2817 -107.8008 72° East 487 560 35,000  Level Denver Center
03:21AM 36.3300 -107.6242 71° East 485 558 35,000  Level Denver Center
03:22AM 36.3717 -107.4722 71° East 486 559 35,000  Level Denver Center
03:23AM 36.4203 -107.2931 71° East 489 563 35,000  Level Denver Center
03:24AM 36.4619 -107.1381 71° East 493 567 35,100  Climbing Denver Center
03:25AM 36.5039 -106.9844 71° East 492 566 35,000 -60 Descending Denver Center
03:26AM 36.5497 -106.8053 72° East 488 562 35,000  Level Denver Center
03:27AM 36.5914 -106.6528 71° East 487 560 35,000  Level Denver Center
03:28AM 36.6336 -106.4864 72° East 489 563 35,000  Level Denver Center
03:29AM 36.6772 -106.3250 71° East 492 566 35,000  Level Denver Center
03:30AM 36.7183 -106.1617 73° East 494 568 35,000  Level Denver Center
03:31AM 36.7567 -106.0100 72° East 493 567 35,000  Level Denver Center
03:32AM 36.8050 -105.8292 71° East 493 567 35,000  Level Denver Center
03:33AM 36.8433 -105.6719 73° East 494 568 35,000  Level Denver Center
03:34AM 36.8819 -105.5158 73° East 493 567 35,000  Level Denver Center
03:35AM 36.9278 -105.3342 72° East 492 566 35,000  Level Denver Center
03:36AM 36.9667 -105.1822 72° East 494 568 35,000  Level Denver Center
03:37AM 37.0069 -105.0169 73° East 497 572 35,000  Level Denver Center
03:38AM 37.0494 -104.8342 74° East 497 572 35,000  Level Denver Center
03:39AM 37.0886 -104.6767 73° East 496 571 35,000  Level Denver Center
03:40AM 37.1256 -104.5175 74° East 500 575 35,000  Level Denver Center
03:41AM 37.1703 -104.3319 73° East 501 577 35,000  Level Denver Center
03:42AM 37.2072 -104.1717 74° East 502 578 35,000  Level Denver Center
03:43AM 37.2444 -104.0119 74° East 502 578 35,000  Level Denver Center
03:44AM 37.2889 -103.8264 73° East 502 578 35,000  Level Denver Center
03:45AM 37.3258 -103.6675 74° East 502 578 35,000  Level Denver Center
03:46AM 37.3631 -103.5075 74° East 501 577 35,000  Level Denver Center
03:47AM 37.4064 -103.3181 74° East 507 583 35,000  Level Denver Center
03:48AM 37.4436 -103.1567 74° East 505 581 35,000  Level Denver Center
03:49AM 37.4803 -102.9956 74° East 503 579 35,000  Level Denver Center
03:50AM 37.5228 -102.8058 74° East 505 581 35,000  Level Denver Center
03:51AM 37.5594 -102.6433 74° East 506 582 35,000  Level Denver Center
03:52AM 37.5981 -102.4678 74° East 506 582 35,000  Level Denver Center
03:53AM 37.6342 -102.3039 74° East 506 582 35,000  Level Denver Center
03:54AM 37.6758 -102.1131 75° East 505 581 35,000  Level Denver Center
03:55AM 37.7108 -101.9497 75° East 504 580 35,000  Level Denver Center
03:57AM 37.7464 -101.7850 75° East 507 583 35,000  Level Denver Center
03:58AM 37.7931 -101.5650 75° East 507 583 35,000  Level Denver Center
03:59AM 37.8286 -101.3992 75° East 508 585 35,000  Level Denver Center
04:00AM 37.8642 -101.2319 75° East 510 587 35,000  Level Denver Center
04:01AM 37.8994 -101.0631 75° East 512 589 35,000  Level Denver Center
04:02AM 37.9397 -100.8644 76° East 514 592 35,000  Level Denver Center
04:03AM 37.9750 -100.6964 75° East 511 588 35,000  Level Denver Center
04:04AM 38.0078 -100.5308 76° East 506 582 35,000  Level Denver Center
04:05AM 38.0456 -100.3375 76° East 502 578 35,000  Level Kansas City Center
04:06AM 38.0842 -100.1439 76° East 504 580 35,000  Level Kansas City Center
04:07AM 38.1167 -99.9775 76° East 506 582 35,000  Level Kansas City Center
04:08AM 38.1500 -99.8108 76° East 508 585 35,000  Level Kansas City Center
04:09AM 38.1867 -99.6158 76° East 508 585 35,000  Level Kansas City Center
04:10AM 38.2175 -99.4556 76° East 506 582 35,000  Level Kansas City Center
04:11AM 38.2525 -99.2800 76° East 508 585 35,000  Level Kansas City Center
04:12AM 38.2844 -99.1039 77° East 511 588 35,000  Level Kansas City Center
04:13AM 38.3175 -98.9308 76° East 506 582 35,000  Level Kansas City Center
04:14AM 38.3511 -98.7544 76° East 509 586 35,000  Level Kansas City Center
04:15AM 38.3825 -98.5808 77° East 504 580 35,000  Level Kansas City Center
04:16AM 38.4158 -98.4039 76° East 508 585 35,000  Level Kansas City Center
04:17AM 38.4478 -98.2289 77° East 505 581 35,000  Level Kansas City Center
04:18AM 38.4792 -98.0511 77° East 508 585 35,000  Level Kansas City Center
04:19AM 38.5111 -97.8736 77° East 508 585 35,000  Level Kansas City Center
04:20AM 38.5419 -97.6964 77° East 509 586 35,000  Level Kansas City Center
04:21AM 38.5725 -97.5178 78° East 512 589 35,000  Level Kansas City Center
04:22AM 38.6033 -97.3406 77° East 510 587 35,000  Level Kansas City Center
04:23AM 38.6339 -97.1639 77° East 508 585 35,000  Level Kansas City Center
04:24AM 38.6631 -96.9875 78° East 507 583 35,000  Level Kansas City Center
04:25AM 38.6931 -96.8050 78° East 510 587 35,000  Level Kansas City Center
04:26AM 38.7258 -96.6039 78° East 518 596 35,000  Level Kansas City Center
04:27AM 38.7564 -96.4317 77° East 518 596 35,000  Level Kansas City Center
04:28AM 38.7833 -96.2564 79° East 524 603 35,000  Level Kansas City Center
04:29AM 38.8150 -96.0525 79° East 524 603 35,000  Level Kansas City Center
04:30AM 38.8431 -95.8786 78° East 522 601 35,000  Level Kansas City Center
04:31AM 38.8700 -95.7039 79° East 523 602 35,000  Level Kansas City Center
04:32AM 38.9008 -95.5033 79° East 518 596 35,000  Level Kansas City Center
04:33AM 38.9278 -95.3311 79° East 519 597 35,000  Level Kansas City Center
04:34AM 38.9528 -95.1589 79° East 520 598 35,000  Level Kansas City Center
04:35AM 38.9833 -94.9583 79° East 518 596 35,000  Level Kansas City Center
04:36AM 39.0094 -94.7861 79° East 518 596 35,000  Level Kansas City Center
04:37AM 39.0353 -94.6125 79° East 519 597 35,000  Level Kansas City Center
04:38AM 39.0650 -94.4106 79° East 516 594 35,000  Level Kansas City Center
04:39AM 39.0897 -94.2394 79° East 510 587 35,000  Level Kansas City Center
04:40AM 39.1142 -94.0667 80° East 512 589 35,000  Level Kansas City Center
04:41AM 39.1428 -93.8678 79° East 508 585 35,000  Level Kansas City Center
04:42AM 39.1661 -93.6961 80° East 509 586 35,000  Level Kansas City Center
04:43AM 39.1892 -93.5247 80° East 507 583 35,000  Level Kansas City Center
04:44AM 39.2192 -93.3206 79° East 514 592 35,000  Level Kansas City Center
04:45AM 39.2419 -93.1400 81° East 517 595 35,000  Level Kansas City Center
04:46AM 39.2658 -92.9597 80° East 516 594 35,000  Level Kansas City Center
04:47AM 39.2894 -92.7817 80° East 514 592 35,000  Level Kansas City Center
04:48AM 39.3122 -92.6025 81° East 512 589 35,000  Level Kansas City Center
04:49AM 39.3361 -92.4214 80° East 514 592 35,000  Level Kansas City Center
04:50AM 39.3578 -92.2414 81° East 515 593 35,000  Level Kansas City Center
04:51AM 39.3797 -92.0631 81° East 512 589 35,000  Level Kansas City Center
04:52AM 39.4019 -91.8819 81° East 514 592 35,000  Level Kansas City Center
04:53AM 39.4286 -91.6653 81° East 516 594 35,000  Level Kansas City Center
04:54AM 39.4511 -91.4781 81° East 517 595 35,000  Level Kansas City Center
04:55AM 39.4733 -91.2917 81° East 520 598 35,000  Level Kansas City Center
04:56AM 39.4942 -91.1072 82° East 520 598 35,000  Level Kansas City Center
04:57AM 39.5156 -90.9228 81° East 519 597 35,000  Level Kansas City Center
04:58AM 39.5367 -90.7386 81° East 515 593 35,000  Level Kansas City Center
05:00AM 39.5564 -90.5539 82° East 517 595 35,000  Level Kansas City Center
05:00AM 39.5769 -90.3656 82° East 522 601 35,000  Level Kansas City Center
05:01AM 39.5972 -90.1775 82° East 524 603 35,000  Level Kansas City Center
05:03AM 39.6169 -89.9900 82° East 524 603 35,000  Level Kansas City Center
05:04AM 39.6356 -89.8042 83° East 523 602 35,000  Level Kansas City Center
05:05AM 39.6539 -89.6192 83° East 517 595 35,000  Level Kansas City Center
05:06AM 39.6731 -89.4361 82° East 514 592 35,000  Level Kansas City Center
05:07AM 39.6919 -89.2433 83° East 513 590 35,000  Level Kansas City Center
05:08AM 39.7100 -89.0597 83° East 514 592 35,000  Level Kansas City Center
05:09AM 39.7275 -88.8733 83° East 519 597 35,000  Level Kansas City Center
05:10AM 39.7444 -88.6894 83° East 517 595 35,000  Level Kansas City Center
05:11AM 39.7631 -88.5047 82° East 517 595 35,000  Level Kansas City Center
05:12AM 39.7806 -88.3208 83° East 516 594 35,000  Level Kansas City Center
05:13AM 39.7967 -88.1422 83° East 515 593 35,000  Level Kansas City Center
05:14AM 39.8114 -87.9597 84° East 510 587 35,000  Level Kansas City Center
05:15AM 39.8275 -87.7744 83° East 510 587 35,000  Level Kansas City Center
05:16AM 39.8442 -87.5517 84° East 513 590 35,000  Level Indianapolis Center
05:17AM 39.8600 -87.3661 84° East 517 595 35,000  Level Indianapolis Center
05:18AM 39.8747 -87.1808 84° East 516 594 35,000  Level Indianapolis Center
05:19AM 39.8903 -86.9953 84° East 516 594 35,000  Level Indianapolis Center
05:20AM 39.9083 -86.7714 84° East 517 595 35,000  Level Indianapolis Center
05:21AM 39.9219 -86.5847 85° East 517 595 35,000  Level Indianapolis Center
05:22AM 39.9358 -86.3967 84° East 517 595 35,000  Level Indianapolis Center
05:23AM 39.9503 -86.2064 84° East 517 595 35,000  Level Indianapolis Center
05:24AM 39.9603 -86.0553 85° East 518 596 35,000  Level Indianapolis Center
05:25AM 39.9756 -85.8311 85° East 516 594 35,000  Level Indianapolis Center
05:26AM 39.9878 -85.6469 85° East 513 590 35,000  Level Indianapolis Center
05:27AM 40.0003 -85.4622 85° East 512 589 35,000  Level Indianapolis Center
05:28AM 40.0125 -85.2781 85° East 511 588 35,000  Level Indianapolis Center
05:29AM 40.0233 -85.0950 86° East 509 586 35,000  Level Indianapolis Center
05:30AM 40.0350 -84.9128 85° East 507 583 35,000  Level Indianapolis Center
05:31AM 40.0450 -84.7325 86° East 500 575 35,000  Level Indianapolis Center
05:32AM 40.0553 -84.5528 86° East 500 575 35,000  Level Indianapolis Center
05:33AM 40.0378 -84.3733 97° East 498 573 35,000  Level Indianapolis Center
05:34AM 40.0111 -84.1936 101° East 506 582 35,000  Level Indianapolis Center
05:35AM 39.9847 -84.0150 101° East 503 579 35,000  Level Indianapolis Center
05:36AM 39.9594 -83.8442 101° East 504 580 35,000  Level Indianapolis Center
05:37AM 39.9331 -83.6636 101° East 504 580 35,000  Level Indianapolis Center
05:38AM 39.9069 -83.4844 101° East 504 580 35,000  Level Indianapolis Center
05:39AM 39.8794 -83.3072 101° East 500 575 35,000  Level Indianapolis Center
05:40AM 39.8472 -83.0939 101° East 500 575 35,000  Level Indianapolis Center
05:41AM 39.8200 -82.9194 101° East 494 568 35,000  Level Indianapolis Center
05:42AM 39.7919 -82.7422 102° East 497 572 35,000  Level Indianapolis Center
05:43AM 39.7644 -82.5642 101° East 502 578 35,000  Level Indianapolis Center
05:44AM 39.7358 -82.3878 102° East 499 574 35,000  Level Indianapolis Center
05:45AM 39.7078 -82.2131 102° East 495 570 35,000  Level Indianapolis Center
05:46AM 39.6731 -82.0042 102° East 492 566 35,000  Level Indianapolis Center
05:47AM 39.6439 -81.8269 102° East 497 572 35,000  Level Indianapolis Center
05:48AM 39.6150 -81.6519 102° East 495 570 35,000  Level Indianapolis Center
05:49AM 39.5861 -81.4731 102° East 502 578 35,000  Level Indianapolis Center
05:50AM 39.5556 -81.2983 103° East 497 572 35,000  Level Indianapolis Center
05:51AM 39.5256 -81.1214 102° East 500 575 35,000  Level Indianapolis Center
05:52AM 39.4953 -80.9467 103° East 497 572 35,000  Level Indianapolis Center
05:53AM 39.4647 -80.7733 103° East 493 567 35,000  Level Indianapolis Center
05:54AM 39.4342 -80.5981 103° East 496 571 35,000  Level Indianapolis Center
05:55AM 39.4036 -80.4247 103° East 494 568 35,000 -240 Level Indianapolis Center
05:56AM 39.3719 -80.2519 103° East 493 567 34,600 -720 Descending Indianapolis Center
05:57AM 39.3406 -80.0814 103° East 489 563 33,600 -1,440 Descending Indianapolis Center
05:59AM 39.3094 -79.9100 103° East 489 563 31,800 -1,380 Descending Indianapolis Center
06:00AM 39.2856 -79.7333 100° East 494 568 30,900 -1,740 Descending Indianapolis Center
06:01AM 39.2717 -79.5525 96° East 505 581 28,300 -2,040 Descending Indianapolis Center
06:02AM 39.2578 -79.3283 95° East 493 567 26,300 -1,680 Descending Washington Center
06:03AM 39.2417 -79.1719 98° East 476 548 24,600 -1,620 Descending Washington Center
06:04AM 39.2272 -79.0186 97° East 443 510 23,100 -1,500 Descending Washington Center
06:05AM 39.2147 -78.8706 96° East 425 489 21,600 -1,500 Descending Washington Center
06:06AM 39.2000 -78.7253 97° East 414 476 20,200 -1,440 Descending Washington Center
06:07AM 39.1847 -78.5828 98° East 408 470 18,800 -1,380 Descending Washington Center
06:08AM 39.1717 -78.4403 97° East 403 464 17,400 -1,380 Descending Washington Center
06:09AM 39.1475 -78.3056 103° East 392 451 16,100 -1,320 Descending Washington Center
06:10AM 39.1169 -78.1786 107° East 379 436 14,800 -1,380 Descending Washington Center
06:11AM 39.0861 -78.0544 108° East 373 429 13,500 -1,200 Descending Washington Center
06:12AM 39.0572 -77.9467 109° East 367 422 12,500 -1,140 Descending Washington Center
06:13AM 39.0281 -77.8308 108° East 347 399 11,200 -1,260 Descending Washington Center
06:14AM 38.9969 -77.7150 109° East 316 364 10,000 -1,140 Descending Washington Center
06:15AM 38.9733 -77.6208 108° East 308 354 9,000 -1,080 Descending Washington Center
06:16AM 38.9481 -77.5161 107° East 308 354 7,900 -1,860 Descending Washington Center
06:17AM 38.9500 -77.3833 89° East 293 337 5,200 -1,500 Descending Potomac TRACON
06:18AM 38.9667 -77.2833 78° East 254 292 4,700 -840 Descending Potomac TRACON
06:19AM 38.9833 -77.2167 72° East 219 252 3,600 -960 Descending Potomac TRACON
06:20AM 38.9667 -77.1500 108° East 192 221 2,900 -960 Descending Potomac TRACON
06:21AM 38.9333 -77.1167 142° Southeast 154 177 1,900 -960 Descending Potomac TRACON
06:22AM 38.9167 -77.0833 123° Southeast 135 155 1,200 -780 Descending Potomac TRACON
06:23AM 38.8833 -77.0500 142° Southeast 134 154 500 -720 Descending Potomac TRACON